sensor_id;sensor_type;location;lat;lon;timestamp;P1;durP1;ratioP1;P2;durP2;ratioP2
3971;SDS011;2000;47.572;14.202;2023-04-03T00:00:48;1.83;;;1.33;;
3971;SDS011;2000;47.572;14.202;2023-04-03T00:03:16;1.37;;;1.27;;
3971;SDS011;2000;47.572;14.202;2023-04-03T00:05:44;1.33;;;1.23;;
3971;SDS011;2000;47.572;14.202;2023-04-03T00:08:11;2.17;;;1.93;;
3971;SDS011;2000;47.572;14.202;2023-04-03T00:10:38;1.17;;;1.13;;
3971;SDS011;2000;47.572;14.202;2023-04-03T00:13:05;2.97;;;1.90;;
3971;SDS011;2000;47.572;14.202;2023-04-03T00:15:33;1.37;;;1.10;;
3971;SDS011;2000;47.572;14.202;2023-04-03T00:18:00;1.13;;;1.03;;
3971;SDS011;2000;47.572;14.202;2023-04-03T00:20:27;1.40;;;1.30;;
3971;SDS011;2000;47.572;14.202;2023-04-03T00:22:54;1.33;;;0.80;;
3971;SDS011;2000;47.572;14.202;2023-04-03T00:25:21;2.43;;;1.70;;
3971;SDS011;2000;47.572;14.202;2023-04-03T00:27:48;1.93;;;1.23;;
3971;SDS011;2000;47.572;14.202;2023-04-03T00:30:16;1.80;;;1.50;;
3971;SDS011;2000;47.572;14.202;2023-04-03T00:32:44;1.23;;;1.00;;
3971;SDS011;2000;47.572;14.202;2023-04-03T00:35:11;1.60;;;1.30;;
3971;SDS011;2000;47.572;14.202;2023-04-03T00:37:37;1.50;;;1.20;;
3971;SDS011;2000;47.572;14.202;2023-04-03T00:40:04;2.13;;;1.47;;
3971;SDS011;2000;47.572;14.202;2023-04-03T00:42:32;1.33;;;1.20;;
3971;SDS011;2000;47.572;14.202;2023-04-03T00:47:27;1.07;;;0.97;;
3971;SDS011;2000;47.572;14.202;2023-04-03T00:49:53;4.23;;;1.30;;
3971;SDS011;2000;47.572;14.202;2023-04-03T00:52:21;1.60;;;1.10;;
3971;SDS011;2000;47.572;14.202;2023-04-03T00:54:50;1.77;;;1.37;;
3971;SDS011;2000;47.572;14.202;2023-04-03T00:57:18;1.60;;;1.40;;
3971;SDS011;2000;47.572;14.202;2023-04-03T00:59:46;3.27;;;1.67;;
3971;SDS011;2000;47.572;14.202;2023-04-03T01:02:17;1.23;;;1.00;;
3971;SDS011;2000;47.572;14.202;2023-04-03T01:04:44;2.10;;;1.60;;
3971;SDS011;2000;47.572;14.202;2023-04-03T01:07:17;1.93;;;1.30;;
3971;SDS011;2000;47.572;14.202;2023-04-03T01:09:47;2.10;;;1.60;;
3971;SDS011;2000;47.572;14.202;2023-04-03T01:12:19;2.47;;;1.67;;
3971;SDS011;2000;47.572;14.202;2023-04-03T01:14:48;1.53;;;1.40;;
3971;SDS011;2000;47.572;14.202;2023-04-03T01:22:48;3.63;;;1.90;;
3971;SDS011;2000;47.572;14.202;2023-04-03T01:25:23;2.63;;;1.53;;
3971;SDS011;2000;47.572;14.202;2023-04-03T01:27:50;1.80;;;1.50;;
3971;SDS011;2000;47.572;14.202;2023-04-03T01:30:18;4.53;;;2.07;;
3971;SDS011;2000;47.572;14.202;2023-04-03T01:32:46;2.70;;;1.93;;
3971;SDS011;2000;47.572;14.202;2023-04-03T01:35:13;1.87;;;1.63;;
3971;SDS011;2000;47.572;14.202;2023-04-03T01:37:39;1.17;;;1.07;;
3971;SDS011;2000;47.572;14.202;2023-04-03T01:40:06;2.03;;;1.20;;
3971;SDS011;2000;47.572;14.202;2023-04-03T01:42:34;2.00;;;1.80;;
3971;SDS011;2000;47.572;14.202;2023-04-03T01:45:01;1.33;;;1.20;;
3971;SDS011;2000;47.572;14.202;2023-04-03T01:47:28;1.57;;;1.10;;
3971;SDS011;2000;47.572;14.202;2023-04-03T01:49:54;2.90;;;1.33;;
3971;SDS011;2000;47.572;14.202;2023-04-03T01:52:21;1.30;;;1.20;;
3971;SDS011;2000;47.572;14.202;2023-04-03T01:54:48;1.70;;;1.50;;
3971;SDS011;2000;47.572;14.202;2023-04-03T01:57:15;1.40;;;1.17;;
3971;SDS011;2000;47.572;14.202;2023-04-03T01:59:42;2.73;;;1.47;;
3971;SDS011;2000;47.572;14.202;2023-04-03T02:02:09;1.50;;;1.40;;
3971;SDS011;2000;47.572;14.202;2023-04-03T02:04:36;2.20;;;1.40;;
3971;SDS011;2000;47.572;14.202;2023-04-03T02:07:02;1.40;;;1.30;;
3971;SDS011;2000;47.572;14.202;2023-04-03T02:09:29;1.90;;;1.53;;
3971;SDS011;2000;47.572;14.202;2023-04-03T02:11:56;3.17;;;1.20;;
3971;SDS011;2000;47.572;14.202;2023-04-03T02:14:23;2.17;;;1.40;;
3971;SDS011;2000;47.572;14.202;2023-04-03T02:16:50;1.07;;;1.00;;
3971;SDS011;2000;47.572;14.202;2023-04-03T02:19:16;1.80;;;1.33;;
3971;SDS011;2000;47.572;14.202;2023-04-03T02:21:43;1.23;;;1.13;;
3971;SDS011;2000;47.572;14.202;2023-04-03T02:24:10;2.60;;;1.30;;
3971;SDS011;2000;47.572;14.202;2023-04-03T02:26:37;2.53;;;1.77;;
3971;SDS011;2000;47.572;14.202;2023-04-03T02:29:04;2.63;;;1.53;;
3971;SDS011;2000;47.572;14.202;2023-04-03T02:31:31;3.13;;;1.53;;
3971;SDS011;2000;47.572;14.202;2023-04-03T02:33:58;2.00;;;1.67;;
3971;SDS011;2000;47.572;14.202;2023-04-03T02:36:25;1.50;;;1.40;;
3971;SDS011;2000;47.572;14.202;2023-04-03T02:38:51;2.47;;;1.67;;
3971;SDS011;2000;47.572;14.202;2023-04-03T02:41:18;1.40;;;1.30;;
3971;SDS011;2000;47.572;14.202;2023-04-03T02:43:45;2.83;;;1.33;;
3971;SDS011;2000;47.572;14.202;2023-04-03T02:46:12;3.43;;;1.50;;
3971;SDS011;2000;47.572;14.202;2023-04-03T02:48:41;2.13;;;1.30;;
3971;SDS011;2000;47.572;14.202;2023-04-03T02:51:08;2.00;;;1.80;;
3971;SDS011;2000;47.572;14.202;2023-04-03T02:53:34;6.33;;;1.50;;
3971;SDS011;2000;47.572;14.202;2023-04-03T02:56:01;2.43;;;1.63;;
3971;SDS011;2000;47.572;14.202;2023-04-03T02:58:28;1.77;;;1.50;;
3971;SDS011;2000;47.572;14.202;2023-04-03T03:00:55;3.00;;;2.20;;
3971;SDS011;2000;47.572;14.202;2023-04-03T03:03:21;1.77;;;1.33;;
3971;SDS011;2000;47.572;14.202;2023-04-03T03:05:49;9.20;;;1.43;;
3971;SDS011;2000;47.572;14.202;2023-04-03T03:08:16;2.40;;;1.30;;
3971;SDS011;2000;47.572;14.202;2023-04-03T03:10:46;5.40;;;1.77;;
3971;SDS011;2000;47.572;14.202;2023-04-03T03:13:13;1.20;;;1.10;;
3971;SDS011;2000;47.572;14.202;2023-04-03T03:15:39;2.70;;;1.40;;
3971;SDS011;2000;47.572;14.202;2023-04-03T03:18:06;4.43;;;1.97;;
3971;SDS011;2000;47.572;14.202;2023-04-03T03:20:33;1.70;;;1.60;;
3971;SDS011;2000;47.572;14.202;2023-04-03T03:23:01;3.70;;;1.80;;
3971;SDS011;2000;47.572;14.202;2023-04-03T03:25:27;1.60;;;1.13;;
3971;SDS011;2000;47.572;14.202;2023-04-03T03:27:54;2.60;;;1.80;;
3971;SDS011;2000;47.572;14.202;2023-04-03T03:30:21;4.93;;;1.70;;
3971;SDS011;2000;47.572;14.202;2023-04-03T03:32:48;1.70;;;1.60;;
3971;SDS011;2000;47.572;14.202;2023-04-03T03:35:15;3.43;;;2.33;;
3971;SDS011;2000;47.572;14.202;2023-04-03T03:37:41;4.73;;;1.60;;
3971;SDS011;2000;47.572;14.202;2023-04-03T03:40:08;6.70;;;1.70;;
3971;SDS011;2000;47.572;14.202;2023-04-03T03:42:37;4.00;;;1.67;;
3971;SDS011;2000;47.572;14.202;2023-04-03T03:45:04;3.83;;;1.70;;
3971;SDS011;2000;47.572;14.202;2023-04-03T03:47:31;3.97;;;2.00;;
3971;SDS011;2000;47.572;14.202;2023-04-03T03:49:58;2.17;;;1.60;;
3971;SDS011;2000;47.572;14.202;2023-04-03T03:52:25;2.60;;;1.57;;
3971;SDS011;2000;47.572;14.202;2023-04-03T03:54:52;1.70;;;1.60;;
3971;SDS011;2000;47.572;14.202;2023-04-03T03:57:19;1.83;;;1.50;;
3971;SDS011;2000;47.572;14.202;2023-04-03T03:59:46;2.90;;;2.03;;
3971;SDS011;2000;47.572;14.202;2023-04-03T04:02:14;2.27;;;1.60;;
3971;SDS011;2000;47.572;14.202;2023-04-03T04:04:42;3.13;;;1.80;;
3971;SDS011;2000;47.572;14.202;2023-04-03T04:07:09;4.30;;;1.40;;
3971;SDS011;2000;47.572;14.202;2023-04-03T04:09:36;2.97;;;1.90;;
3971;SDS011;2000;47.572;14.202;2023-04-03T04:12:03;1.90;;;1.37;;
3971;SDS011;2000;47.572;14.202;2023-04-03T04:14:30;2.13;;;1.47;;
3971;SDS011;2000;47.572;14.202;2023-04-03T04:16:56;1.40;;;1.30;;
3971;SDS011;2000;47.572;14.202;2023-04-03T04:19:23;1.73;;;1.53;;
3971;SDS011;2000;47.572;14.202;2023-04-03T04:21:50;1.83;;;1.23;;
3971;SDS011;2000;47.572;14.202;2023-04-03T04:24:17;5.47;;;1.50;;
3971;SDS011;2000;47.572;14.202;2023-04-03T04:26:44;1.93;;;1.47;;
3971;SDS011;2000;47.572;14.202;2023-04-03T04:29:10;1.50;;;1.40;;
3971;SDS011;2000;47.572;14.202;2023-04-03T04:31:37;3.67;;;1.90;;
3971;SDS011;2000;47.572;14.202;2023-04-03T04:34:04;2.20;;;1.70;;
3971;SDS011;2000;47.572;14.202;2023-04-03T04:36:30;3.70;;;1.80;;
3971;SDS011;2000;47.572;14.202;2023-04-03T04:38:57;1.40;;;1.30;;
3971;SDS011;2000;47.572;14.202;2023-04-03T04:41:24;1.40;;;1.30;;
3971;SDS011;2000;47.572;14.202;2023-04-03T04:43:51;2.17;;;1.80;;
3971;SDS011;2000;47.572;14.202;2023-04-03T04:46:18;3.27;;;2.07;;
3971;SDS011;2000;47.572;14.202;2023-04-03T04:48:45;1.50;;;1.40;;
3971;SDS011;2000;47.572;14.202;2023-04-03T04:51:12;3.77;;;2.00;;
3971;SDS011;2000;47.572;14.202;2023-04-03T04:53:38;1.80;;;1.70;;
3971;SDS011;2000;47.572;14.202;2023-04-03T04:56:05;1.17;;;1.07;;
3971;SDS011;2000;47.572;14.202;2023-04-03T04:58:32;1.73;;;1.63;;
3971;SDS011;2000;47.572;14.202;2023-04-03T05:00:59;1.70;;;1.60;;
3971;SDS011;2000;47.572;14.202;2023-04-03T05:03:27;2.10;;;1.83;;
3971;SDS011;2000;47.572;14.202;2023-04-03T05:05:54;2.30;;;2.10;;
3971;SDS011;2000;47.572;14.202;2023-04-03T05:08:20;8.27;;;5.07;;
3971;SDS011;2000;47.572;14.202;2023-04-03T05:10:47;7.97;;;4.30;;
3971;SDS011;2000;47.572;14.202;2023-04-03T05:13:14;9.77;;;4.60;;
3971;SDS011;2000;47.572;14.202;2023-04-03T05:15:41;12.97;;;6.10;;
3971;SDS011;2000;47.572;14.202;2023-04-03T05:18:08;7.20;;;4.20;;
3971;SDS011;2000;47.572;14.202;2023-04-03T05:20:35;5.37;;;3.17;;
3971;SDS011;2000;47.572;14.202;2023-04-03T05:23:03;3.60;;;2.40;;
3971;SDS011;2000;47.572;14.202;2023-04-03T05:25:30;3.13;;;2.07;;
3971;SDS011;2000;47.572;14.202;2023-04-03T05:27:56;2.00;;;1.80;;
3971;SDS011;2000;47.572;14.202;2023-04-03T05:30:23;4.30;;;1.80;;
3971;SDS011;2000;47.572;14.202;2023-04-03T05:32:50;2.47;;;1.50;;
3971;SDS011;2000;47.572;14.202;2023-04-03T05:35:17;4.27;;;2.27;;
3971;SDS011;2000;47.572;14.202;2023-04-03T05:37:44;4.10;;;2.00;;
3971;SDS011;2000;47.572;14.202;2023-04-03T05:40:11;7.13;;;1.83;;
3971;SDS011;2000;47.572;14.202;2023-04-03T05:42:38;5.57;;;1.80;;
3971;SDS011;2000;47.572;14.202;2023-04-03T05:45:05;6.33;;;1.83;;
3971;SDS011;2000;47.572;14.202;2023-04-03T05:47:32;5.13;;;1.70;;
3971;SDS011;2000;47.572;14.202;2023-04-03T05:49:59;1.87;;;1.47;;
3971;SDS011;2000;47.572;14.202;2023-04-03T05:52:27;4.50;;;2.47;;
3971;SDS011;2000;47.572;14.202;2023-04-03T05:54:55;2.90;;;2.50;;
3971;SDS011;2000;47.572;14.202;2023-04-03T05:57:22;1.83;;;1.50;;
3971;SDS011;2000;47.572;14.202;2023-04-03T05:59:50;1.80;;;1.70;;
3971;SDS011;2000;47.572;14.202;2023-04-03T06:02:17;3.57;;;1.60;;
3971;SDS011;2000;47.572;14.202;2023-04-03T06:04:47;5.10;;;1.30;;
3971;SDS011;2000;47.572;14.202;2023-04-03T06:07:15;2.43;;;1.03;;
3971;SDS011;2000;47.572;14.202;2023-04-03T06:09:44;1.70;;;1.60;;
3971;SDS011;2000;47.572;14.202;2023-04-03T06:12:10;1.87;;;1.57;;
3971;SDS011;2000;47.572;14.202;2023-04-03T06:14:37;1.33;;;1.23;;
3971;SDS011;2000;47.572;14.202;2023-04-03T06:17:04;1.97;;;1.30;;
3971;SDS011;2000;47.572;14.202;2023-04-03T06:19:31;9.47;;;1.40;;
3971;SDS011;2000;47.572;14.202;2023-04-03T06:21:58;3.27;;;1.80;;
3971;SDS011;2000;47.572;14.202;2023-04-03T06:24:24;2.53;;;1.30;;
3971;SDS011;2000;47.572;14.202;2023-04-03T06:26:52;2.10;;;2.00;;
3971;SDS011;2000;47.572;14.202;2023-04-03T06:29:19;4.87;;;2.07;;
3971;SDS011;2000;47.572;14.202;2023-04-03T06:31:46;3.10;;;1.50;;
3971;SDS011;2000;47.572;14.202;2023-04-03T06:34:14;1.60;;;1.50;;
3971;SDS011;2000;47.572;14.202;2023-04-03T06:36:42;7.30;;;3.10;;
3971;SDS011;2000;47.572;14.202;2023-04-03T06:39:16;1.90;;;1.73;;
3971;SDS011;2000;47.572;14.202;2023-04-03T06:41:46;2.93;;;2.20;;
3971;SDS011;2000;47.572;14.202;2023-04-03T06:44:13;3.10;;;1.83;;
3971;SDS011;2000;47.572;14.202;2023-04-03T06:46:42;4.90;;;1.70;;
3971;SDS011;2000;47.572;14.202;2023-04-03T06:49:09;2.57;;;1.60;;
3971;SDS011;2000;47.572;14.202;2023-04-03T06:51:36;1.40;;;1.30;;
3971;SDS011;2000;47.572;14.202;2023-04-03T06:54:04;1.77;;;1.63;;
3971;SDS011;2000;47.572;14.202;2023-04-03T06:56:32;27.97;;;11.77;;
3971;SDS011;2000;47.572;14.202;2023-04-03T06:58:59;11.87;;;5.80;;
3971;SDS011;2000;47.572;14.202;2023-04-03T07:01:26;2.23;;;1.90;;
3971;SDS011;2000;47.572;14.202;2023-04-03T07:03:54;5.87;;;3.27;;
3971;SDS011;2000;47.572;14.202;2023-04-03T07:06:21;9.30;;;4.60;;
3971;SDS011;2000;47.572;14.202;2023-04-03T07:08:48;2.37;;;2.17;;
3971;SDS011;2000;47.572;14.202;2023-04-03T07:11:16;2.43;;;2.23;;
3971;SDS011;2000;47.572;14.202;2023-04-03T07:13:43;3.07;;;2.73;;
3971;SDS011;2000;47.572;14.202;2023-04-03T07:16:10;5.00;;;2.70;;
3971;SDS011;2000;47.572;14.202;2023-04-03T07:18:37;6.53;;;3.87;;
3971;SDS011;2000;47.572;14.202;2023-04-03T07:21:04;5.10;;;3.00;;
3971;SDS011;2000;47.572;14.202;2023-04-03T07:23:31;3.57;;;2.73;;
3971;SDS011;2000;47.572;14.202;2023-04-03T07:25:58;3.47;;;2.60;;
3971;SDS011;2000;47.572;14.202;2023-04-03T07:28:25;3.10;;;2.73;;
3971;SDS011;2000;47.572;14.202;2023-04-03T07:30:53;3.13;;;2.83;;
3971;SDS011;2000;47.572;14.202;2023-04-03T07:33:27;8.40;;;3.67;;
3971;SDS011;2000;47.572;14.202;2023-04-03T07:35:54;3.57;;;2.73;;
3971;SDS011;2000;47.572;14.202;2023-04-03T07:38:21;3.70;;;3.03;;
3971;SDS011;2000;47.572;14.202;2023-04-03T07:40:48;7.70;;;5.03;;
3971;SDS011;2000;47.572;14.202;2023-04-03T07:43:17;5.13;;;2.70;;
3971;SDS011;2000;47.572;14.202;2023-04-03T07:45:44;5.43;;;3.93;;
3971;SDS011;2000;47.572;14.202;2023-04-03T07:48:11;5.70;;;2.97;;
3971;SDS011;2000;47.572;14.202;2023-04-03T07:50:42;6.90;;;3.90;;
3971;SDS011;2000;47.572;14.202;2023-04-03T07:53:09;5.93;;;3.90;;
3971;SDS011;2000;47.572;14.202;2023-04-03T07:55:36;4.10;;;2.57;;
3971;SDS011;2000;47.572;14.202;2023-04-03T07:58:13;3.20;;;2.80;;
3971;SDS011;2000;47.572;14.202;2023-04-03T08:00:41;4.10;;;2.67;;
3971;SDS011;2000;47.572;14.202;2023-04-03T08:03:09;3.77;;;2.40;;
3971;SDS011;2000;47.572;14.202;2023-04-03T08:05:39;3.00;;;2.70;;
3971;SDS011;2000;47.572;14.202;2023-04-03T08:08:07;5.17;;;3.10;;
3971;SDS011;2000;47.572;14.202;2023-04-03T08:10:34;2.47;;;2.27;;
3971;SDS011;2000;47.572;14.202;2023-04-03T08:13:01;5.03;;;3.00;;
3971;SDS011;2000;47.572;14.202;2023-04-03T08:15:29;4.73;;;3.33;;
3971;SDS011;2000;47.572;14.202;2023-04-03T08:17:57;7.53;;;5.30;;
3971;SDS011;2000;47.572;14.202;2023-04-03T08:20:25;3.10;;;2.60;;
3971;SDS011;2000;47.572;14.202;2023-04-03T08:22:52;12.23;;;3.20;;
3971;SDS011;2000;47.572;14.202;2023-04-03T08:25:19;6.47;;;4.30;;
3971;SDS011;2000;47.572;14.202;2023-04-03T08:27:46;6.83;;;2.87;;
3971;SDS011;2000;47.572;14.202;2023-04-03T08:30:13;3.20;;;2.90;;
3971;SDS011;2000;47.572;14.202;2023-04-03T08:32:40;6.67;;;3.07;;
3971;SDS011;2000;47.572;14.202;2023-04-03T08:35:09;3.47;;;1.73;;
3971;SDS011;2000;47.572;14.202;2023-04-03T08:37:37;3.13;;;1.60;;
3971;SDS011;2000;47.572;14.202;2023-04-03T08:40:04;2.03;;;1.57;;
3971;SDS011;2000;47.572;14.202;2023-04-03T08:48:05;3.93;;;2.20;;
3971;SDS011;2000;47.572;14.202;2023-04-03T08:50:38;7.20;;;2.20;;
3971;SDS011;2000;47.572;14.202;2023-04-03T08:53:41;3.83;;;2.13;;
3971;SDS011;2000;47.572;14.202;2023-04-03T08:56:04;8.30;;;2.10;;
3971;SDS011;2000;47.572;14.202;2023-04-03T08:58:56;8.93;;;2.50;;
3971;SDS011;2000;47.572;14.202;2023-04-03T09:01:38;3.90;;;1.87;;
3971;SDS011;2000;47.572;14.202;2023-04-03T09:04:10;2.03;;;1.83;;
3971;SDS011;2000;47.572;14.202;2023-04-03T09:06:39;3.30;;;2.43;;
3971;SDS011;2000;47.572;14.202;2023-04-03T09:11:43;5.37;;;2.40;;
3971;SDS011;2000;47.572;14.202;2023-04-03T09:17:21;2.50;;;1.73;;
3971;SDS011;2000;47.572;14.202;2023-04-03T09:19:58;2.77;;;2.43;;
3971;SDS011;2000;47.572;14.202;2023-04-03T09:22:34;5.40;;;2.50;;
3971;SDS011;2000;47.572;14.202;2023-04-03T09:25:18;4.20;;;2.20;;
3971;SDS011;2000;47.572;14.202;2023-04-03T09:27:47;9.03;;;2.30;;
3971;SDS011;2000;47.572;14.202;2023-04-03T09:30:15;5.40;;;3.00;;
3971;SDS011;2000;47.572;14.202;2023-04-03T09:32:47;6.03;;;3.03;;
3971;SDS011;2000;47.572;14.202;2023-04-03T09:35:22;6.60;;;4.07;;
3971;SDS011;2000;47.572;14.202;2023-04-03T09:40:40;4.57;;;2.90;;
3971;SDS011;2000;47.572;14.202;2023-04-03T09:43:23;7.90;;;3.33;;
3971;SDS011;2000;47.572;14.202;2023-04-03T09:45:55;6.90;;;4.97;;
3971;SDS011;2000;47.572;14.202;2023-04-03T09:48:23;2.60;;;1.80;;
3971;SDS011;2000;47.572;14.202;2023-04-03T09:53:30;3.73;;;2.70;;
3971;SDS011;2000;47.572;14.202;2023-04-03T09:58:44;3.33;;;2.87;;
3971;SDS011;2000;47.572;14.202;2023-04-03T10:01:23;5.20;;;3.57;;
3971;SDS011;2000;47.572;14.202;2023-04-03T10:06:50;5.30;;;3.53;;
3971;SDS011;2000;47.572;14.202;2023-04-03T10:09:25;4.00;;;2.50;;
3971;SDS011;2000;47.572;14.202;2023-04-03T10:12:07;9.13;;;4.67;;
3971;SDS011;2000;47.572;14.202;2023-04-03T10:14:36;4.10;;;3.03;;
3971;SDS011;2000;47.572;14.202;2023-04-03T10:23:21;11.43;;;3.73;;
3971;SDS011;2000;47.572;14.202;2023-04-03T10:28:48;1.50;;;1.40;;
3971;SDS011;2000;47.572;14.202;2023-04-03T10:31:42;2.27;;;1.47;;
3971;SDS011;2000;47.572;14.202;2023-04-03T10:42:32;4.40;;;1.50;;
3971;SDS011;2000;47.572;14.202;2023-04-03T10:45:15;1.57;;;1.40;;
3971;SDS011;2000;47.572;14.202;2023-04-03T10:56:24;2.20;;;1.47;;
3971;SDS011;2000;47.572;14.202;2023-04-03T11:02:06;2.30;;;1.40;;
3971;SDS011;2000;47.572;14.202;2023-04-03T11:04:36;3.90;;;1.30;;
3971;SDS011;2000;47.572;14.202;2023-04-03T11:09:43;2.50;;;2.30;;
3971;SDS011;2000;47.572;14.202;2023-04-03T11:12:13;1.37;;;1.27;;
3971;SDS011;2000;47.572;14.202;2023-04-03T11:14:43;1.20;;;1.20;;
3971;SDS011;2000;47.572;14.202;2023-04-03T11:22:42;1.23;;;1.00;;
3971;SDS011;2000;47.572;14.202;2023-04-03T11:27:48;0.83;;;0.83;;
3971;SDS011;2000;47.572;14.202;2023-04-03T11:30:33;1.17;;;1.13;;
3971;SDS011;2000;47.572;14.202;2023-04-03T11:35:51;1.30;;;0.90;;
3971;SDS011;2000;47.572;14.202;2023-04-03T11:38:23;1.23;;;1.00;;
3971;SDS011;2000;47.572;14.202;2023-04-03T11:40:56;4.70;;;1.00;;
3971;SDS011;2000;47.572;14.202;2023-04-03T11:43:25;1.37;;;1.00;;
3971;SDS011;2000;47.572;14.202;2023-04-03T11:51:01;0.73;;;0.73;;
3971;SDS011;2000;47.572;14.202;2023-04-03T11:53:33;1.47;;;1.37;;
3971;SDS011;2000;47.572;14.202;2023-04-03T11:56:02;1.33;;;1.23;;
3971;SDS011;2000;47.572;14.202;2023-04-03T12:01:53;5.80;;;1.00;;
3971;SDS011;2000;47.572;14.202;2023-04-03T12:04:25;2.50;;;0.87;;
3971;SDS011;2000;47.572;14.202;2023-04-03T12:09:57;1.70;;;1.23;;
3971;SDS011;2000;47.572;14.202;2023-04-03T12:12:28;1.43;;;1.13;;
3971;SDS011;2000;47.572;14.202;2023-04-03T12:15:11;1.80;;;0.70;;
3971;SDS011;2000;47.572;14.202;2023-04-03T12:17:43;1.00;;;1.00;;
3971;SDS011;2000;47.572;14.202;2023-04-03T12:23:28;0.60;;;0.60;;
3971;SDS011;2000;47.572;14.202;2023-04-03T12:26:00;0.97;;;0.97;;
3971;SDS011;2000;47.572;14.202;2023-04-03T12:28:48;1.20;;;1.10;;
3971;SDS011;2000;47.572;14.202;2023-04-03T12:31:16;1.70;;;0.90;;
3971;SDS011;2000;47.572;14.202;2023-04-03T12:34:01;4.00;;;1.57;;
3971;SDS011;2000;47.572;14.202;2023-04-03T12:36:46;2.27;;;1.50;;
3971;SDS011;2000;47.572;14.202;2023-04-03T12:39:24;1.27;;;0.90;;
3971;SDS011;2000;47.572;14.202;2023-04-03T12:45:19;1.13;;;1.07;;
3971;SDS011;2000;47.572;14.202;2023-04-03T12:47:48;1.20;;;1.10;;
3971;SDS011;2000;47.572;14.202;2023-04-03T12:55:33;1.27;;;1.10;;
3971;SDS011;2000;47.572;14.202;2023-04-03T12:58:17;2.50;;;1.40;;
3971;SDS011;2000;47.572;14.202;2023-04-03T13:01:09;2.80;;;1.00;;
3971;SDS011;2000;47.572;14.202;2023-04-03T13:03:38;1.23;;;1.13;;
3971;SDS011;2000;47.572;14.202;2023-04-03T13:06:06;1.00;;;1.00;;
3971;SDS011;2000;47.572;14.202;2023-04-03T13:08:33;1.63;;;1.20;;
3971;SDS011;2000;47.572;14.202;2023-04-03T13:11:07;1.13;;;0.90;;
3971;SDS011;2000;47.572;14.202;2023-04-03T13:13:36;1.93;;;1.07;;
3971;SDS011;2000;47.572;14.202;2023-04-03T13:16:09;1.33;;;1.23;;
3971;SDS011;2000;47.572;14.202;2023-04-03T13:18:37;1.60;;;1.00;;
3971;SDS011;2000;47.572;14.202;2023-04-03T13:21:05;1.38;;;1.00;;
3971;SDS011;2000;47.572;14.202;2023-04-03T13:23:38;1.07;;;1.00;;
3971;SDS011;2000;47.572;14.202;2023-04-03T13:26:06;1.30;;;1.03;;
3971;SDS011;2000;47.572;14.202;2023-04-03T13:28:33;1.57;;;1.10;;
3971;SDS011;2000;47.572;14.202;2023-04-03T13:33:55;0.90;;;0.90;;
3971;SDS011;2000;47.572;14.202;2023-04-03T13:36:34;1.40;;;1.30;;
3971;SDS011;2000;47.572;14.202;2023-04-03T13:41:58;1.70;;;1.10;;
3971;SDS011;2000;47.572;14.202;2023-04-03T13:44:32;2.70;;;1.70;;
3971;SDS011;2000;47.572;14.202;2023-04-03T13:49:43;1.60;;;1.13;;
3971;SDS011;2000;47.572;14.202;2023-04-03T13:52:22;1.63;;;1.53;;
3971;SDS011;2000;47.572;14.202;2023-04-03T13:54:59;4.50;;;1.10;;
3971;SDS011;2000;47.572;14.202;2023-04-03T13:57:30;3.07;;;1.60;;
3971;SDS011;2000;47.572;14.202;2023-04-03T13:59:57;3.47;;;1.70;;
3971;SDS011;2000;47.572;14.202;2023-04-03T14:02:32;1.90;;;1.60;;
3971;SDS011;2000;47.572;14.202;2023-04-03T14:05:00;3.30;;;2.73;;
3971;SDS011;2000;47.572;14.202;2023-04-03T14:07:30;2.37;;;1.50;;
3971;SDS011;2000;47.572;14.202;2023-04-03T14:09:57;3.80;;;2.60;;
3971;SDS011;2000;47.572;14.202;2023-04-03T14:12:28;4.70;;;2.50;;
3971;SDS011;2000;47.572;14.202;2023-04-03T14:14:59;2.10;;;1.90;;
3971;SDS011;2000;47.572;14.202;2023-04-03T14:17:27;4.33;;;2.77;;
3971;SDS011;2000;47.572;14.202;2023-04-03T14:19:55;2.90;;;2.00;;
3971;SDS011;2000;47.572;14.202;2023-04-03T14:22:25;3.30;;;2.20;;
3971;SDS011;2000;47.572;14.202;2023-04-03T14:24:54;2.50;;;1.70;;
3971;SDS011;2000;47.572;14.202;2023-04-03T14:27:29;2.50;;;1.90;;
3971;SDS011;2000;47.572;14.202;2023-04-03T14:30:02;4.13;;;2.00;;
3971;SDS011;2000;47.572;14.202;2023-04-03T14:32:30;3.53;;;1.77;;
3971;SDS011;2000;47.572;14.202;2023-04-03T14:34:57;4.67;;;2.60;;
3971;SDS011;2000;47.572;14.202;2023-04-03T14:37:26;5.50;;;2.07;;
3971;SDS011;2000;47.572;14.202;2023-04-03T14:39:56;3.53;;;2.23;;
3971;SDS011;2000;47.572;14.202;2023-04-03T14:42:27;4.40;;;2.10;;
3971;SDS011;2000;47.572;14.202;2023-04-03T14:44:56;6.37;;;2.60;;
3971;SDS011;2000;47.572;14.202;2023-04-03T14:47:25;7.63;;;1.73;;
3971;SDS011;2000;47.572;14.202;2023-04-03T14:49:58;3.70;;;3.20;;
3971;SDS011;2000;47.572;14.202;2023-04-03T14:52:28;3.23;;;2.03;;
3971;SDS011;2000;47.572;14.202;2023-04-03T14:54:58;4.30;;;2.27;;
3971;SDS011;2000;47.572;14.202;2023-04-03T14:57:27;5.53;;;2.10;;
3971;SDS011;2000;47.572;14.202;2023-04-03T14:59:55;8.80;;;2.50;;
3971;SDS011;2000;47.572;14.202;2023-04-03T15:05:03;5.57;;;2.17;;
3971;SDS011;2000;47.572;14.202;2023-04-03T15:07:33;2.70;;;2.10;;
3971;SDS011;2000;47.572;14.202;2023-04-03T15:12:44;4.50;;;2.30;;
3971;SDS011;2000;47.572;14.202;2023-04-03T15:15:12;3.30;;;3.00;;
3971;SDS011;2000;47.572;14.202;2023-04-03T15:17:40;4.70;;;3.03;;
3971;SDS011;2000;47.572;14.202;2023-04-03T15:20:12;6.00;;;2.93;;
3971;SDS011;2000;47.572;14.202;2023-04-03T15:22:46;5.20;;;3.83;;
3971;SDS011;2000;47.572;14.202;2023-04-03T15:25:13;5.23;;;2.93;;
3971;SDS011;2000;47.572;14.202;2023-04-03T15:27:41;4.30;;;2.10;;
3971;SDS011;2000;47.572;14.202;2023-04-03T15:30:11;4.47;;;3.40;;
3971;SDS011;2000;47.572;14.202;2023-04-03T15:32:41;9.03;;;3.90;;
3971;SDS011;2000;47.572;14.202;2023-04-03T15:35:08;3.30;;;2.77;;
3971;SDS011;2000;47.572;14.202;2023-04-03T15:37:35;6.23;;;2.83;;
3971;SDS011;2000;47.572;14.202;2023-04-03T15:40:02;4.63;;;3.30;;
3971;SDS011;2000;47.572;14.202;2023-04-03T15:42:30;7.70;;;3.00;;
3971;SDS011;2000;47.572;14.202;2023-04-03T15:44:57;3.73;;;2.80;;
3971;SDS011;2000;47.572;14.202;2023-04-03T15:47:24;6.07;;;3.57;;
3971;SDS011;2000;47.572;14.202;2023-04-03T15:49:52;4.40;;;3.03;;
3971;SDS011;2000;47.572;14.202;2023-04-03T15:52:20;16.10;;;8.10;;
3971;SDS011;2000;47.572;14.202;2023-04-03T15:54:46;8.10;;;3.37;;
3971;SDS011;2000;47.572;14.202;2023-04-03T15:57:13;4.57;;;3.13;;
3971;SDS011;2000;47.572;14.202;2023-04-03T15:59:40;14.70;;;9.20;;
3971;SDS011;2000;47.572;14.202;2023-04-03T16:02:07;8.60;;;5.73;;
3971;SDS011;2000;47.572;14.202;2023-04-03T16:04:34;7.63;;;3.40;;
3971;SDS011;2000;47.572;14.202;2023-04-03T16:07:02;5.13;;;3.63;;
3971;SDS011;2000;47.572;14.202;2023-04-03T16:09:30;3.70;;;2.40;;
3971;SDS011;2000;47.572;14.202;2023-04-03T16:11:58;3.20;;;2.20;;
3971;SDS011;2000;47.572;14.202;2023-04-03T16:14:24;5.60;;;2.63;;
3971;SDS011;2000;47.572;14.202;2023-04-03T16:16:51;5.97;;;3.10;;
3971;SDS011;2000;47.572;14.202;2023-04-03T16:19:18;4.33;;;3.07;;
3971;SDS011;2000;47.572;14.202;2023-04-03T16:21:45;3.70;;;3.13;;
3971;SDS011;2000;47.572;14.202;2023-04-03T16:24:12;6.20;;;2.53;;
3971;SDS011;2000;47.572;14.202;2023-04-03T16:26:43;5.67;;;2.80;;
3971;SDS011;2000;47.572;14.202;2023-04-03T16:29:10;4.33;;;2.63;;
3971;SDS011;2000;47.572;14.202;2023-04-03T16:31:37;3.33;;;2.60;;
3971;SDS011;2000;47.572;14.202;2023-04-03T16:34:04;8.20;;;2.93;;
3971;SDS011;2000;47.572;14.202;2023-04-03T16:36:30;7.80;;;4.67;;
3971;SDS011;2000;47.572;14.202;2023-04-03T16:38:57;6.70;;;4.87;;
3971;SDS011;2000;47.572;14.202;2023-04-03T16:41:24;6.80;;;4.30;;
3971;SDS011;2000;47.572;14.202;2023-04-03T16:43:51;7.60;;;3.50;;
3971;SDS011;2000;47.572;14.202;2023-04-03T16:46:17;3.97;;;2.90;;
3971;SDS011;2000;47.572;14.202;2023-04-03T16:48:44;7.60;;;2.77;;
3971;SDS011;2000;47.572;14.202;2023-04-03T16:51:12;5.20;;;4.20;;
3971;SDS011;2000;47.572;14.202;2023-04-03T16:53:39;4.47;;;3.13;;
3971;SDS011;2000;47.572;14.202;2023-04-03T16:56:06;4.10;;;3.60;;
3971;SDS011;2000;47.572;14.202;2023-04-03T16:58:33;8.63;;;4.97;;
3971;SDS011;2000;47.572;14.202;2023-04-03T17:01:08;6.00;;;3.87;;